TimeMST,TemperatureF,Dew PointF,Humidity,Sea Level PressureIn,VisibilityMPH,Wind Direction,Wind SpeedMPH,Gust SpeedMPH,PrecipitationIn,Events,Conditions,WindDirDegrees,DateUTC
12:51 AM,79.0,41.0,26,29.76,10.0,SSW,11.5,-,N/A,,Clear,200,2013-08-03 07:51:00
1:51 AM,79.0,39.0,24,29.76,10.0,SSE,11.5,-,N/A,,Clear,150,2013-08-03 08:51:00
2:51 AM,75.0,41.0,29,29.76,10.0,SE,11.5,-,N/A,,Clear,140,2013-08-03 09:51:00
3:51 AM,75.0,41.0,29,29.77,10.0,SSE,10.4,-,N/A,,Clear,150,2013-08-03 10:51:00
4:51 AM,73.0,42.1,33,29.79,10.0,SE,9.2,-,N/A,,Clear,140,2013-08-03 11:51:00
5:51 AM,73.0,41.0,31,29.81,10.0,ESE,10.4,-,N/A,,Clear,110,2013-08-03 12:51:00
6:51 AM,75.9,41.0,29,29.82,10.0,South,5.8,-,N/A,,Clear,190,2013-08-03 13:51:00
7:51 AM,82.0,35.1,18,29.84,10.0,WSW,3.5,-,N/A,,Clear,240,2013-08-03 14:51:00
8:51 AM,84.9,37.9,19,29.85,10.0,WSW,8.1,-,N/A,,Clear,240,2013-08-03 15:51:00
9:51 AM,86.0,35.1,16,29.86,10.0,WSW,6.9,-,N/A,,Clear,240,2013-08-03 16:51:00
10:51 AM,91.0,32.0,12,29.84,10.0,Calm,Calm,-,N/A,,Clear,0,2013-08-03 17:51:00
11:51 AM,96.1,25.0,8,29.83,10.0,SW,18.4,28.8,N/A,,Clear,230,2013-08-03 18:51:00
12:51 PM,97.0,21.9,7,29.81,10.0,SW,21.9,29.9,N/A,,Clear,230,2013-08-03 19:51:00
1:51 PM,98.1,21.9,7,29.80,10.0,SSW,20.7,26.5,N/A,,Clear,210,2013-08-03 20:51:00
2:51 PM,97.0,21.0,6,29.79,10.0,SW,16.1,26.5,N/A,,Clear,230,2013-08-03 21:51:00
3:51 PM,97.0,25.0,8,29.78,10.0,SW,19.6,28.8,N/A,,Clear,220,2013-08-03 22:51:00
4:51 PM,97.0,30.9,10,29.77,10.0,SW,18.4,26.5,N/A,,Clear,220,2013-08-03 23:51:00
5:51 PM,95.0,37.0,13,29.76,10.0,WSW,13.8,21.9,N/A,,Clear,240,2013-08-04 00:51:00
6:51 PM,93.0,39.0,15,29.76,10.0,SW,12.7,-,N/A,,Clear,220,2013-08-04 01:51:00
7:51 PM,88.0,39.0,18,29.77,10.0,SSW,8.1,-,N/A,,Clear,210,2013-08-04 02:51:00
8:51 PM,84.9,39.9,20,29.78,10.0,South,9.2,-,N/A,,Clear,190,2013-08-04 03:51:00
9:51 PM,82.0,41.0,23,29.80,10.0,South,10.4,-,N/A,,Clear,180,2013-08-04 04:51:00
10:51 PM,79.0,41.0,26,29.80,10.0,South,9.2,-,N/A,,Clear,170,2013-08-04 05:51:00
11:51 PM,79.0,42.1,27,29.79,10.0,South,9.2,-,N/A,,Clear,180,2013-08-04 06:51:00